Sitka, South Dakota
Current Conditions -  °F | °C
As of 4:52 PM on Saturday 20 Dec 2014 (Local Time) from KMBG Reporting Station
Clear Clear  
Wind Chill: 22°   Ceiling: Unl
Heat Index: 30°   Visibility: 10mi
Dew Point: 26°   Wind: 8mph
Humidity: 85%   Direction: 130°SE
Pressure: 29.83"   Gusts: NA
Location:  45.4184°N, 100.09°W
Report Text: KMBG 202252Z AUTO 13007KT 10SM CLR M01/M03 A2983 RMK AO2 SLP127 T10111033
Loading
Personal Weather Stations






























Interactive Weather Map New forecast layout! Learn more

10-Day Weather Forecast

Advertisements
Track Severe Weather on mobile